Time;durP1;ratioP1;P1;durP2;ratioP2;P2;SDS_P1;SDS_P2;PMS_P1;PMS_P2;Temp;Humidity;BMP_temperature;BMP_pressure;BME280_temperature;BME280_humidity;BME280_pressure;Samples;Min_cycle;Max_cycle;Signal;HPM_P1;HPM_P2
2021/05/05 00:01:26;;;;;;;0.60;0.60;;;7.20;99.90;;;;;;5048334;28;20204;-77
2021/05/05 00:03:52;;;;;;;0.60;0.60;;;7.40;99.90;;;;;;5048225;28;20228;-77
2021/05/05 00:06:19;;;;;;;0.60;0.60;;;7.20;99.90;;;;;;5047859;28;20729;-77
2021/05/05 00:08:45;;;;;;;0.60;0.60;;;7.20;99.90;;;;;;5048243;28;20212;-77
2021/05/05 00:11:12;;;;;;;0.60;0.60;;;7.10;99.90;;;;;;5048197;28;20208;-77
2021/05/05 00:13:38;;;;;;;0.60;0.60;;;7.20;99.90;;;;;;5047771;28;20232;-77
2021/05/05 00:16:06;;;;;;;0.60;0.60;;;7.20;99.90;;;;;;5048007;28;20215;-77
2021/05/05 00:18:33;;;;;;;0.60;0.60;;;7.60;99.90;;;;;;5048281;28;20364;-76
2021/05/05 00:20:59;;;;;;;0.60;0.60;;;7.10;99.90;;;;;;5048245;28;20208;-77
2021/05/05 00:23:26;;;;;;;0.60;0.60;;;7.10;99.90;;;;;;5047728;28;20235;-77
2021/05/05 00:25:52;;;;;;;0.60;0.60;;;7.00;99.90;;;;;;5048289;28;20601;-77
2021/05/05 00:28:18;;;;;;;0.60;0.60;;;6.90;99.90;;;;;;5047935;28;20204;-77
2021/05/05 00:30:45;;;;;;;0.50;0.50;;;6.80;99.90;;;;;;5047637;28;20216;-77
2021/05/05 00:33:11;;;;;;;0.52;0.52;;;6.80;99.90;;;;;;5048042;28;20604;-77
2021/05/05 00:35:38;;;;;;;0.60;0.60;;;6.70;99.90;;;;;;5048137;28;20207;-77
2021/05/05 00:38:05;;;;;;;0.60;0.60;;;6.70;99.90;;;;;;5047582;28;20691;-77
2021/05/05 00:40:31;;;;;;;0.60;0.60;;;6.70;99.90;;;;;;5048130;28;20548;-76
2021/05/05 00:42:58;;;;;;;0.60;0.60;;;6.70;99.90;;;;;;5047943;28;20210;-77
2021/05/05 00:45:24;;;;;;;0.60;0.60;;;5.80;99.90;;;;;;5047361;28;20224;-77
2021/05/05 00:47:50;;;;;;;0.60;0.60;;;6.70;99.90;;;;;;5047993;28;20207;-77
2021/05/05 00:50:18;;;;;;;0.60;0.60;;;6.70;99.90;;;;;;5047672;28;20204;-77
2021/05/05 00:52:44;;;;;;;0.60;0.60;;;6.70;99.90;;;;;;5047812;28;20792;-77
2021/05/05 00:55:12;;;;;;;0.60;0.60;;;6.70;99.90;;;;;;5047449;28;20815;-77
2021/05/05 00:57:39;;;;;;;0.60;0.60;;;6.70;99.90;;;;;;5047675;28;20208;-77
2021/05/05 01:00:07;;;;;;;0.60;0.60;;;6.70;99.90;;;;;;5047777;28;20200;-77
2021/05/05 01:02:34;;;;;;;0.60;0.60;;;6.80;99.90;;;;;;5047425;28;20208;-77
2021/05/05 01:05:00;;;;;;;0.60;0.60;;;6.70;99.90;;;;;;5047603;28;20415;-77
2021/05/05 01:07:27;;;;;;;0.60;0.60;;;6.70;99.90;;;;;;5047571;28;20212;-77
2021/05/05 01:09:54;;;;;;;0.60;0.60;;;6.70;99.90;;;;;;5047801;28;20201;-77
2021/05/05 01:12:20;;;;;;;0.60;0.60;;;6.90;99.90;;;;;;5047209;28;20611;-77
2021/05/05 01:14:46;;;;;;;0.60;0.60;;;6.70;99.90;;;;;;5047498;28;20232;-77
2021/05/05 01:17:14;;;;;;;0.60;0.60;;;6.70;99.90;;;;;;5047523;28;20212;-77
2021/05/05 01:19:40;;;;;;;0.60;0.60;;;6.70;99.90;;;;;;5047589;28;20212;-77
2021/05/05 01:22:07;;;;;;;0.60;0.60;;;6.60;99.90;;;;;;5047131;28;20200;-77
2021/05/05 01:24:34;;;;;;;0.60;0.60;;;6.70;99.90;;;;;;5047707;28;20231;-77
2021/05/05 01:27:01;;;;;;;0.60;0.60;;;6.60;99.90;;;;;;5047530;28;20225;-77
2021/05/05 01:29:30;;;;;;;0.60;0.60;;;6.70;99.90;;;;;;5047243;28;20246;-77
2021/05/05 01:31:57;;;;;;;0.60;0.60;;;6.70;99.90;;;;;;5047445;28;20200;-77
2021/05/05 01:34:24;;;;;;;0.60;0.60;;;6.60;99.90;;;;;;5047963;28;20396;-77
2021/05/05 01:36:50;;;;;;;0.60;0.60;;;6.60;99.90;;;;;;5050700;28;20575;-77
2021/05/05 01:39:19;;;;;;;0.60;0.60;;;6.60;99.90;;;;;;5050999;28;20204;-77
2021/05/05 01:41:47;;;;;;;0.50;0.50;;;6.60;99.90;;;;;;5051055;28;20204;-77
2021/05/05 01:44:15;;;;;;;0.60;0.60;;;6.60;99.90;;;;;;5050694;28;20228;-77
2021/05/05 01:46:47;;;;;;;0.60;0.60;;;6.60;99.90;;;;;;5050962;28;20215;-76
2021/05/05 01:49:20;;;;;;;0.60;0.60;;;6.70;99.90;;;;;;5050548;28;20204;-77
2021/05/05 01:51:47;;;;;;;0.60;0.60;;;6.60;99.90;;;;;;5050867;28;20234;-78
2021/05/05 01:54:13;;;;;;;0.60;0.60;;;6.70;99.90;;;;;;5050688;28;20204;-77
2021/05/05 01:56:40;;;;;;;0.60;0.60;;;6.70;99.90;;;;;;5050394;28;20211;-77
2021/05/05 01:59:06;;;;;;;0.50;0.50;;;6.70;99.90;;;;;;5050708;28;20663;-76
2021/05/05 02:01:32;;;;;;;0.60;0.60;;;6.70;99.90;;;;;;5050717;28;20332;-77
2021/05/05 02:04:01;;;;;;;0.60;0.60;;;6.70;99.90;;;;;;5050523;28;20204;-76
2021/05/05 02:06:28;;;;;;;0.60;0.60;;;6.70;99.90;;;;;;5050438;28;20215;-76
2021/05/05 02:08:54;;;;;;;0.60;0.60;;;6.70;99.90;;;;;;5050652;28;20204;-77
2021/05/05 02:11:21;;;;;;;0.50;0.50;;;6.70;99.90;;;;;;5050141;28;20204;-76
2021/05/05 02:13:48;;;;;;;0.60;0.60;;;6.70;99.90;;;;;;5050584;28;20240;-77
2021/05/05 02:16:14;;;;;;;0.50;0.50;;;6.70;99.90;;;;;;5050186;28;20698;-77
2021/05/05 02:18:40;;;;;;;0.60;0.60;;;6.60;99.90;;;;;;5050457;28;20219;-76
2021/05/05 02:21:07;;;;;;;0.60;0.60;;;6.70;99.90;;;;;;5049865;28;20674;-77
2021/05/05 02:23:33;;;;;;;0.60;0.60;;;6.70;99.90;;;;;;5050200;28;20219;-77
2021/05/05 02:26:00;;;;;;;0.50;0.50;;;6.70;99.90;;;;;;5049925;28;20232;-77
2021/05/05 02:28:26;;;;;;;0.50;0.50;;;6.70;99.90;;;;;;5049798;28;20204;-77
2021/05/05 02:30:54;;;;;;;0.60;0.60;;;6.70;99.90;;;;;;5050232;28;20215;-77
2021/05/05 02:33:20;;;;;;;0.60;0.60;;;6.70;99.90;;;;;;5050114;28;20201;-77
2021/05/05 02:35:46;;;;;;;0.60;0.60;;;6.70;99.90;;;;;;5049891;28;20200;-77
2021/05/05 02:38:12;;;;;;;0.55;0.55;;;6.60;99.90;;;;;;5049827;28;20733;-77
2021/05/05 02:40:39;;;;;;;0.60;0.60;;;6.60;99.90;;;;;;5049733;28;20200;-77
2021/05/05 02:43:05;;;;;;;0.60;0.60;;;6.50;99.90;;;;;;5048383;28;20212;-76
2021/05/05 02:45:31;;;;;;;0.60;0.60;;;6.50;99.90;;;;;;5048948;28;20224;-77
2021/05/05 02:47:58;;;;;;;0.50;0.50;;;6.50;99.90;;;;;;5049727;28;20204;-77
2021/05/05 02:50:24;;;;;;;0.60;0.60;;;6.50;99.90;;;;;;5050408;28;20208;-78
2021/05/05 02:52:50;;;;;;;0.60;0.60;;;6.50;99.90;;;;;;5050658;28;20201;-77
2021/05/05 02:55:17;;;;;;;0.60;0.60;;;6.40;99.90;;;;;;5050188;28;20907;-77
2021/05/05 02:57:43;;;;;;;0.60;0.60;;;6.30;99.90;;;;;;5050341;28;20205;-77
2021/05/05 03:00:11;;;;;;;0.60;0.60;;;6.20;99.90;;;;;;5050400;28;20204;-77
2021/05/05 03:02:37;;;;;;;0.60;0.60;;;6.10;99.90;;;;;;5050697;28;20211;-77
2021/05/05 03:05:07;;;;;;;0.57;0.57;;;6.10;99.90;;;;;;5049941;28;20282;-77
2021/05/05 03:07:33;;;;;;;0.60;0.60;;;6.10;99.90;;;;;;5050229;28;20208;-77
2021/05/05 03:09:59;;;;;;;0.60;0.60;;;6.10;99.90;;;;;;5050292;28;20212;-77
2021/05/05 03:12:25;;;;;;;0.60;0.60;;;6.10;99.90;;;;;;5050099;28;20200;-77
2021/05/05 03:14:54;;;;;;;0.60;0.60;;;6.10;99.90;;;;;;5050009;28;20228;-76
2021/05/05 03:17:20;;;;;;;0.60;0.60;;;6.10;99.90;;;;;;5049953;28;20204;-77
2021/05/05 03:19:46;;;;;;;0.50;0.50;;;6.20;99.90;;;;;;5049754;28;20216;-77
2021/05/05 03:22:13;;;;;;;0.60;0.60;;;6.20;99.90;;;;;;5049854;28;20215;-77
2021/05/05 03:24:40;;;;;;;0.55;0.55;;;6.20;99.90;;;;;;5049911;28;20229;-76
2021/05/05 03:27:09;;;;;;;0.60;0.60;;;6.20;99.90;;;;;;5049910;28;20224;-76
2021/05/05 03:29:35;;;;;;;0.60;0.60;;;6.20;99.90;;;;;;5049695;28;20212;-77
2021/05/05 03:32:01;;;;;;;0.60;0.60;;;6.20;99.90;;;;;;5049859;28;20200;-77
2021/05/05 03:34:27;;;;;;;0.60;0.60;;;6.20;99.90;;;;;;5049726;28;20215;-77
2021/05/05 03:36:53;;;;;;;0.60;0.60;;;6.10;99.90;;;;;;5049517;28;20208;-76
2021/05/05 03:39:20;;;;;;;0.60;0.60;;;6.10;99.90;;;;;;5049574;28;20208;-76
2021/05/05 03:41:46;;;;;;;0.60;0.60;;;6.00;99.90;;;;;;5049787;28;20208;-77
2021/05/05 03:44:12;;;;;;;0.60;0.60;;;6.00;99.90;;;;;;5049546;28;20285;-79
2021/05/05 03:46:38;;;;;;;0.60;0.60;;;6.00;99.90;;;;;;5047480;28;20255;-80
2021/05/05 03:49:09;;;;;;;0.60;0.60;;;6.00;99.90;;;;;;5049779;28;20231;-81
2021/05/05 03:51:35;;;;;;;0.60;0.60;;;6.00;99.90;;;;;;5049436;28;20240;-81
2021/05/05 03:54:01;;;;;;;0.60;0.60;;;6.00;99.90;;;;;;5049395;28;20511;-81
2021/05/05 03:56:29;;;;;;;0.55;0.55;;;6.00;99.90;;;;;;5049399;28;20240;-77
2021/05/05 03:58:57;;;;;;;0.60;0.60;;;6.10;99.90;;;;;;5049344;28;20207;-77
2021/05/05 04:01:23;;;;;;;0.55;0.55;;;6.10;99.90;;;;;;5049136;28;20601;-77
2021/05/05 04:03:49;;;;;;;0.60;0.60;;;6.10;99.90;;;;;;5049462;28;20214;-78
2021/05/05 04:06:15;;;;;;;0.50;0.50;;;6.10;99.90;;;;;;5049166;28;20235;-78
2021/05/05 04:08:41;;;;;;;0.60;0.60;;;6.10;99.90;;;;;;5049372;28;20208;-78
2021/05/05 04:11:07;;;;;;;0.60;0.60;;;6.20;99.90;;;;;;5049159;28;20663;-78
2021/05/05 04:13:34;;;;;;;0.60;0.60;;;6.20;99.90;;;;;;5029032;28;20738;-78
2021/05/05 04:16:00;;;;;;;0.60;0.60;;;6.30;99.90;;;;;;5029567;28;20205;-78
2021/05/05 04:18:27;;;;;;;0.60;0.60;;;6.30;99.90;;;;;;5029000;28;20209;-79
2021/05/05 04:20:55;;;;;;;0.60;0.60;;;6.20;99.90;;;;;;5029346;28;20259;-78
2021/05/05 04:23:21;;;;;;;0.60;0.60;;;6.30;99.90;;;;;;5029105;28;20694;-78
2021/05/05 04:25:47;;;;;;;0.50;0.50;;;6.30;99.90;;;;;;5028928;28;20404;-78
2021/05/05 04:28:14;;;;;;;0.60;0.60;;;6.30;99.90;;;;;;5029282;28;20227;-78
2021/05/05 04:30:41;;;;;;;0.60;0.60;;;6.30;99.90;;;;;;5033352;28;20204;-78
2021/05/05 04:33:08;;;;;;;0.55;0.55;;;6.30;99.90;;;;;;5048017;28;20219;-78
2021/05/05 04:35:34;;;;;;;0.60;0.60;;;6.10;99.90;;;;;;5049185;28;20204;-80
2021/05/05 04:38:00;;;;;;;0.60;0.60;;;6.30;99.90;;;;;;5049115;28;20648;-80
2021/05/05 04:40:26;;;;;;;0.60;0.60;;;6.40;99.90;;;;;;5049226;28;20211;-78
2021/05/05 04:42:52;;;;;;;0.50;0.50;;;6.40;99.90;;;;;;5049150;28;20261;-78
2021/05/05 04:45:19;;;;;;;0.60;0.60;;;6.40;99.90;;;;;;5048597;28;20224;-78
2021/05/05 04:47:45;;;;;;;0.60;0.60;;;6.40;99.90;;;;;;5049145;28;20223;-78
2021/05/05 04:50:12;;;;;;;0.60;0.60;;;6.40;99.90;;;;;;5041870;28;20212;-78
2021/05/05 04:52:39;;;;;;;0.60;0.60;;;6.60;99.90;;;;;;5040293;28;20204;-78
2021/05/05 04:55:07;;;;;;;0.60;0.60;;;6.60;99.90;;;;;;5048693;28;20192;-78
2021/05/05 04:57:33;;;;;;;0.60;0.60;;;6.50;99.90;;;;;;5048840;28;20208;-78
2021/05/05 05:00:00;;;;;;;0.52;0.52;;;6.50;99.90;;;;;;5049122;28;20659;-78
2021/05/05 05:02:26;;;;;;;0.60;0.60;;;6.40;99.90;;;;;;5048550;28;20211;-78
2021/05/05 05:04:53;;;;;;;0.60;0.60;;;6.40;99.90;;;;;;5048739;28;20224;-78
2021/05/05 05:07:19;;;;;;;0.60;0.60;;;6.40;99.90;;;;;;5049004;28;20204;-78
2021/05/05 05:09:45;;;;;;;0.60;0.60;;;6.40;99.90;;;;;;5049886;28;20205;-78
2021/05/05 05:12:12;;;;;;;0.60;0.60;;;6.40;99.90;;;;;;5037231;28;20251;-78
2021/05/05 05:14:38;;;;;;;0.50;0.50;;;6.30;99.90;;;;;;5038731;28;20258;-78
2021/05/05 05:17:05;;;;;;;0.60;0.60;;;6.30;99.90;;;;;;5052510;28;20620;-77
2021/05/05 05:19:31;;;;;;;0.60;0.60;;;6.40;99.90;;;;;;5050073;28;20204;-77
2021/05/05 05:22:00;;;;;;;0.60;0.60;;;6.40;99.90;;;;;;5051658;28;20204;-77
2021/05/05 05:24:26;;;;;;;0.60;0.60;;;6.40;99.90;;;;;;5052477;28;20273;-77
2021/05/05 05:26:52;;;;;;;0.50;0.50;;;6.40;99.90;;;;;;5052025;28;20425;-76
2021/05/05 05:29:18;;;;;;;0.60;0.60;;;6.40;99.90;;;;;;5052535;28;20242;-77
2021/05/05 05:31:48;;;;;;;0.60;0.60;;;6.30;99.90;;;;;;5051701;28;20209;-77
2021/05/05 05:34:14;;;;;;;0.60;0.60;;;6.20;99.90;;;;;;5052511;28;20239;-77
2021/05/05 05:36:40;;;;;;;0.60;0.60;;;6.20;99.90;;;;;;5052263;28;20237;-77
2021/05/05 05:39:08;;;;;;;0.60;0.60;;;6.20;99.90;;;;;;5052244;28;20204;-77
2021/05/05 05:41:34;;;;;;;0.60;0.60;;;6.20;99.90;;;;;;5052064;28;20219;-77
2021/05/05 05:44:00;;;;;;;0.60;0.60;;;6.30;99.90;;;;;;5051803;28;20920;-78
2021/05/05 05:46:26;;;;;;;0.60;0.60;;;6.40;99.90;;;;;;5051575;28;20224;-84
2021/05/05 05:48:53;;;;;;;0.55;0.55;;;6.50;99.90;;;;;;5051920;28;20219;-82
2021/05/05 05:51:19;;;;;;;0.50;0.50;;;6.60;99.90;;;;;;5052128;28;20205;-77
2021/05/05 05:53:45;;;;;;;0.60;0.60;;;6.50;99.90;;;;;;5052089;28;20212;-77
2021/05/05 05:56:12;;;;;;;0.55;0.55;;;6.50;99.90;;;;;;5051721;28;20200;-77
2021/05/05 05:58:38;;;;;;;0.60;0.60;;;6.60;99.90;;;;;;5051804;28;20203;-77
2021/05/05 06:01:05;;;;;;;0.60;0.60;;;6.60;99.90;;;;;;5051193;28;20679;-77
2021/05/05 06:03:31;;;;;;;0.55;0.55;;;6.60;99.90;;;;;;5051953;28;20208;-78
2021/05/05 06:05:58;;;;;;;0.60;0.60;;;6.70;99.90;;;;;;5051182;28;20224;-78
2021/05/05 06:08:24;;;;;;;0.60;0.60;;;6.70;99.90;;;;;;5051755;28;20693;-77
2021/05/05 06:10:50;;;;;;;0.60;0.60;;;6.70;99.90;;;;;;5051270;28;20202;-77
2021/05/05 06:13:17;;;;;;;0.60;0.60;;;6.70;99.90;;;;;;5051472;28;20224;-77
2021/05/05 06:15:44;;;;;;;0.60;0.60;;;6.70;99.90;;;;;;5051045;28;20196;-77
2021/05/05 06:18:10;;;;;;;0.60;0.60;;;6.70;99.90;;;;;;5051427;28;20258;-77
2021/05/05 06:20:36;;;;;;;0.60;0.60;;;6.60;99.90;;;;;;5051391;28;20215;-77
2021/05/05 06:23:03;;;;;;;0.60;0.60;;;6.60;99.90;;;;;;5051332;28;20204;-77
2021/05/05 06:25:29;;;;;;;0.60;0.60;;;6.60;99.90;;;;;;5051215;28;20224;-78
2021/05/05 06:27:55;;;;;;;0.60;0.60;;;6.60;99.90;;;;;;5051382;28;20208;-78
2021/05/05 06:30:23;;;;;;;0.60;0.60;;;6.60;99.90;;;;;;5050702;28;20396;-78
2021/05/05 06:32:49;;;;;;;0.57;0.57;;;6.50;99.90;;;;;;5051471;28;20208;-77
2021/05/05 06:35:16;;;;;;;0.60;0.60;;;6.60;99.90;;;;;;5050770;28;20197;-77
2021/05/05 06:37:42;;;;;;;0.60;0.60;;;6.60;99.90;;;;;;5051368;28;20204;-78
2021/05/05 06:40:09;;;;;;;0.60;0.60;;;6.60;99.90;;;;;;5050852;28;20238;-78
2021/05/05 06:42:36;;;;;;;0.57;0.57;;;6.70;99.90;;;;;;5050909;28;20250;-78
2021/05/05 06:45:04;;;;;;;0.60;0.60;;;6.70;99.90;;;;;;5051058;28;20228;-78
2021/05/05 06:47:31;;;;;;;0.60;0.60;;;6.80;99.90;;;;;;5050425;28;20204;-78
2021/05/05 06:49:57;;;;;;;0.60;0.60;;;6.80;99.90;;;;;;5051221;28;20254;-78
2021/05/05 06:52:23;;;;;;;0.60;0.60;;;7.40;99.90;;;;;;5050588;28;20208;-80
2021/05/05 06:54:49;;;;;;;0.60;0.60;;;6.90;99.90;;;;;;5050788;28;20205;-79
2021/05/05 06:57:15;;;;;;;0.50;0.50;;;6.90;99.90;;;;;;5050494;28;20682;-78
2021/05/05 06:59:42;;;;;;;0.60;0.60;;;6.80;99.90;;;;;;5050709;28;20200;-78
2021/05/05 07:02:08;;;;;;;0.60;0.60;;;6.80;99.90;;;;;;5054736;28;20231;-82
2021/05/05 07:04:35;;;;;;;0.60;0.60;;;6.80;99.90;;;;;;5050966;28;20204;-78
2021/05/05 07:07:01;;;;;;;0.60;0.60;;;6.80;99.90;;;;;;5050475;28;20205;-78
2021/05/05 07:09:27;;;;;;;0.55;0.55;;;6.70;99.90;;;;;;5050263;28;20204;-77
2021/05/05 07:11:53;;;;;;;0.50;0.50;;;6.80;99.90;;;;;;5050299;28;20239;-80
2021/05/05 07:14:20;;;;;;;0.60;0.60;;;6.70;99.90;;;;;;5050553;28;20278;-80
2021/05/05 07:16:46;;;;;;;0.60;0.60;;;6.70;99.90;;;;;;5049658;28;20215;-79
2021/05/05 07:19:12;;;;;;;0.55;0.55;;;6.70;99.90;;;;;;5050652;28;20208;-81
2021/05/05 07:21:39;;;;;;;0.57;0.57;;;6.80;99.90;;;;;;5041785;28;20212;-85
2021/05/05 07:24:06;;;;;;;0.60;0.60;;;6.90;99.90;;;;;;5030847;28;20205;-77
2021/05/05 07:26:33;;;;;;;0.50;0.50;;;6.90;99.90;;;;;;5032433;28;20220;-79
2021/05/05 07:28:59;;;;;;;0.60;0.60;;;7.00;99.90;;;;;;5048070;28;20204;-77
2021/05/05 07:31:25;;;;;;;0.50;0.50;;;7.10;99.90;;;;;;5049546;28;20215;-77
2021/05/05 07:33:52;;;;;;;0.60;0.60;;;5.30;99.90;;;;;;5047537;28;20642;-77
2021/05/05 07:36:20;;;;;;;0.60;0.60;;;7.20;99.90;;;;;;5048334;28;20209;-77
2021/05/05 07:47:13;;;;;;;0.60;0.60;;;7.40;99.90;;;;;;5049833;28;20218;-77
2021/05/05 07:49:43;;;;;;;0.60;0.60;;;7.40;99.90;;;;;;5049673;28;20212;-77
2021/05/05 07:52:10;;;;;;;0.60;0.60;;;7.40;99.90;;;;;;5049973;28;20208;-78
2021/05/05 07:54:37;;;;;;;0.55;0.55;;;7.50;99.90;;;;;;5050091;28;20215;-77
2021/05/05 07:57:04;;;;;;;0.50;0.50;;;7.40;99.90;;;;;;5047394;28;20215;-77
2021/05/05 07:59:30;;;;;;;0.60;0.60;;;7.30;99.90;;;;;;5046921;28;20559;-79
2021/05/05 08:01:57;;;;;;;0.60;0.60;;;7.40;99.90;;;;;;5048794;28;20208;-77
2021/05/05 08:04:23;;;;;;;0.50;0.50;;;7.30;99.90;;;;;;5049777;28;20216;-78
2021/05/05 08:06:49;;;;;;;0.60;0.60;;;7.50;99.90;;;;;;5049333;28;20647;-78
2021/05/05 08:09:15;;;;;;;0.50;0.50;;;7.60;99.90;;;;;;5050010;28;20208;-78
2021/05/05 08:11:42;;;;;;;0.55;0.55;;;7.60;99.90;;;;;;5049160;28;20208;-77
2021/05/05 08:14:08;;;;;;;0.60;0.60;;;7.60;99.90;;;;;;5049304;28;20228;-77
2021/05/05 08:16:34;;;;;;;0.60;0.60;;;7.60;99.90;;;;;;5049259;28;20594;-78
2021/05/05 08:19:00;;;;;;;0.50;0.50;;;7.60;99.90;;;;;;5049261;28;20215;-78
2021/05/05 08:21:28;;;;;;;0.60;0.60;;;7.60;99.90;;;;;;5049441;28;20216;-78
2021/05/05 08:23:55;;;;;;;0.60;0.60;;;7.60;99.90;;;;;;5049168;28;20614;-77
2021/05/05 08:26:21;;;;;;;0.60;0.60;;;7.60;99.90;;;;;;5048913;28;20232;-78
2021/05/05 08:28:48;;;;;;;0.60;0.60;;;7.60;99.90;;;;;;5049342;28;20242;-77
2021/05/05 08:31:14;;;;;;;0.60;0.60;;;7.60;99.90;;;;;;5048776;28;20608;-77
2021/05/05 08:33:40;;;;;;;0.50;0.50;;;7.70;99.90;;;;;;5049312;28;20208;-79
2021/05/05 08:36:06;;;;;;;0.60;0.60;;;7.70;99.90;;;;;;5049119;28;20196;-77
2021/05/05 08:38:33;;;;;;;0.60;0.60;;;7.40;99.90;;;;;;5049104;28;20246;-77
2021/05/05 08:40:59;;;;;;;0.60;0.60;;;7.80;99.90;;;;;;5049120;28;20216;-77
2021/05/05 08:43:25;;;;;;;0.60;0.60;;;7.80;99.90;;;;;;5049243;28;20208;-77
2021/05/05 08:45:57;;;;;;;0.60;0.60;;;7.80;99.90;;;;;;5051438;28;20238;-77
2021/05/05 08:48:24;;;;;;;0.60;0.60;;;7.90;99.90;;;;;;5053489;28;20207;-77
2021/05/05 08:50:50;;;;;;;0.60;0.60;;;8.00;99.90;;;;;;5052892;28;20207;-77
2021/05/05 08:53:16;;;;;;;0.60;0.60;;;8.10;99.90;;;;;;5053077;28;20277;-77
2021/05/05 08:55:42;;;;;;;0.60;0.60;;;8.10;99.90;;;;;;5053435;28;20254;-78
2021/05/05 08:58:08;;;;;;;0.60;0.60;;;8.00;99.90;;;;;;5052877;28;20208;-77
2021/05/05 09:00:37;;;;;;;0.60;0.60;;;8.10;99.90;;;;;;5048812;28;20211;-77
2021/05/05 09:03:06;;;;;;;0.60;0.60;;;8.20;99.90;;;;;;5051967;28;20215;-77
2021/05/05 09:05:46;;;;;;;0.52;0.52;;;8.20;99.90;;;;;;5051705;28;20315;-77
2021/05/05 09:08:14;;;;;;;0.57;0.57;;;8.20;99.90;;;;;;5052241;28;20228;-78
2021/05/05 09:10:56;;;;;;;0.60;0.60;;;8.10;99.90;;;;;;5051922;28;20211;-77
2021/05/05 09:13:45;;;;;;;0.60;0.60;;;7.90;99.90;;;;;;5051902;28;20240;-77
2021/05/05 09:16:12;;;;;;;0.60;0.60;;;8.00;99.90;;;;;;5051409;28;20205;-77
2021/05/05 09:18:58;;;;;;;0.60;0.60;;;8.00;99.90;;;;;;5052062;28;20200;-78
2021/05/05 09:21:25;;;;;;;0.60;0.60;;;8.00;99.90;;;;;;5051335;28;20212;-77
2021/05/05 09:23:52;;;;;;;0.60;0.60;;;8.10;99.90;;;;;;5051427;28;20208;-78
2021/05/05 09:26:38;;;;;;;0.60;0.60;;;8.20;99.90;;;;;;5051608;28;20235;-78
2021/05/05 09:29:04;;;;;;;0.60;0.60;;;8.40;99.90;;;;;;5051314;28;20212;-77
2021/05/05 09:31:34;;;;;;;0.50;0.50;;;8.40;99.90;;;;;;5051146;28;20215;-77
2021/05/05 09:34:03;;;;;;;0.60;0.60;;;8.50;99.90;;;;;;5051545;28;20262;-77
2021/05/05 09:36:29;;;;;;;0.50;0.50;;;8.50;99.90;;;;;;5051714;28;20591;-78
2021/05/05 09:38:55;;;;;;;0.60;0.60;;;8.60;99.90;;;;;;5051183;28;20406;-78
2021/05/05 09:41:23;;;;;;;0.60;0.60;;;8.60;99.90;;;;;;5051598;28;20262;-78
2021/05/05 09:43:50;;;;;;;0.60;0.60;;;8.50;99.90;;;;;;5051250;28;20251;-78
2021/05/05 09:46:42;;;;;;;0.60;0.60;;;8.50;99.90;;;;;;5050542;28;20228;-78
2021/05/05 09:49:25;;;;;;;0.50;0.50;;;8.40;99.90;;;;;;5051048;28;20204;-78
2021/05/05 09:51:55;;;;;;;0.60;0.60;;;8.40;99.90;;;;;;5051121;28;20212;-77
2021/05/05 09:54:23;;;;;;;0.60;0.60;;;8.50;99.90;;;;;;5051248;28;20209;-77
2021/05/05 09:56:49;;;;;;;0.60;0.60;;;8.50;99.90;;;;;;5050021;28;20192;-81
2021/05/05 09:59:19;;;;;;;0.60;0.60;;;8.60;99.90;;;;;;5051987;28;20257;-78
2021/05/05 10:02:02;;;;;;;0.60;0.60;;;8.60;99.90;;;;;;5051483;28;20208;-77
2021/05/05 10:04:30;;;;;;;0.60;0.60;;;8.80;99.90;;;;;;5051934;28;20204;-77
2021/05/05 10:07:01;;;;;;;0.60;0.60;;;9.00;99.90;;;;;;5049408;28;20233;-77
2021/05/05 10:09:32;;;;;;;0.50;0.50;;;9.10;99.90;;;;;;5051371;28;20307;-78
2021/05/05 10:11:58;;;;;;;0.60;0.60;;;9.00;99.90;;;;;;5050901;28;20213;-78
2021/05/05 10:14:27;;;;;;;0.50;0.50;;;9.00;99.90;;;;;;5043301;28;20239;-77
2021/05/05 10:16:53;;;;;;;0.60;0.60;;;9.00;99.90;;;;;;5039830;28;20185;-78
2021/05/05 10:19:22;;;;;;;0.60;0.60;;;9.00;99.90;;;;;;5040160;28;20219;-78
2021/05/05 10:21:53;;;;;;;0.60;0.60;;;8.80;99.90;;;;;;5050967;28;20235;-77
2021/05/05 10:24:21;;;;;;;0.60;0.60;;;9.10;99.90;;;;;;5050915;28;20291;-79
2021/05/05 10:26:47;;;;;;;0.60;0.60;;;9.10;99.90;;;;;;5050624;28;20608;-77
2021/05/05 10:29:14;;;;;;;0.60;0.60;;;9.00;99.90;;;;;;5050891;28;20212;-76
2021/05/05 10:31:41;;;;;;;0.60;0.60;;;9.00;99.90;;;;;;5050931;28;20626;-77
2021/05/05 10:34:15;;;;;;;0.60;0.60;;;9.00;99.90;;;;;;5050573;28;20211;-81
2021/05/05 10:36:46;;;;;;;0.60;0.60;;;8.80;99.90;;;;;;5050757;28;20209;-77
2021/05/05 10:39:32;;;;;;;0.60;0.60;;;8.80;99.90;;;;;;5050786;28;20231;-76
2021/05/05 10:42:17;;;;;;;0.60;0.60;;;8.70;99.90;;;;;;5040213;28;20288;-77
2021/05/05 10:44:46;;;;;;;0.57;0.57;;;8.60;99.90;;;;;;5029762;28;20659;-76
2021/05/05 10:47:19;;;;;;;0.60;0.60;;;8.50;99.90;;;;;;5026989;28;20204;-77
2021/05/05 10:50:14;;;;;;;0.60;0.60;;;8.20;99.90;;;;;;5028919;28;20264;-77
2021/05/05 10:53:00;;;;;;;0.60;0.60;;;7.60;99.90;;;;;;5025246;28;20207;-77
2021/05/05 10:55:49;;;;;;;0.60;0.60;;;7.60;99.90;;;;;;5027206;28;20200;-77
2021/05/05 10:58:18;;;;;;;0.60;0.60;;;7.60;99.90;;;;;;5022002;28;20209;-76
2021/05/05 11:00:47;;;;;;;0.60;0.60;;;7.70;99.90;;;;;;5024834;28;20213;-77
2021/05/05 11:03:14;;;;;;;0.60;0.60;;;7.90;99.90;;;;;;5027558;28;20205;-77
2021/05/05 11:05:42;;;;;;;0.60;0.60;;;8.20;99.90;;;;;;5024050;28;20225;-76
2021/05/05 11:08:09;;;;;;;0.60;0.60;;;8.30;99.90;;;;;;5025311;28;20225;-77
2021/05/05 11:10:50;;;;;;;0.60;0.60;;;8.40;99.90;;;;;;5027420;28;20209;-76
2021/05/05 11:13:37;;;;;;;0.60;0.60;;;8.50;99.90;;;;;;5025503;28;20247;-77
2021/05/05 11:16:04;;;;;;;0.60;0.60;;;8.70;99.90;;;;;;5027241;28;20740;-77
2021/05/05 11:18:46;;;;;;;0.60;0.60;;;8.80;99.90;;;;;;5025992;28;20216;-77
2021/05/05 11:21:38;;;;;;;0.60;0.60;;;9.00;99.90;;;;;;5030714;28;20250;-83
2021/05/05 11:24:32;;;;;;;0.60;0.60;;;9.00;99.90;;;;;;5023756;28;20574;-79
2021/05/05 11:27:01;;;;;;;0.60;0.60;;;9.20;99.90;;;;;;5027136;28;20236;-77
2021/05/05 11:29:40;;;;;;;0.60;0.60;;;9.30;99.90;;;;;;5022188;28;20295;-78
2021/05/05 11:32:09;;;;;;;0.60;0.60;;;9.20;99.90;;;;;;5026698;28;20208;-77
2021/05/05 11:34:36;;;;;;;0.60;0.60;;;9.00;99.90;;;;;;5023640;28;20243;-77
2021/05/05 11:37:06;;;;;;;0.60;0.60;;;8.70;99.90;;;;;;5025414;28;20211;-78
2021/05/05 11:39:35;;;;;;;0.50;0.50;;;8.40;99.90;;;;;;5025405;28;21094;-77
2021/05/05 11:42:04;;;;;;;0.60;0.60;;;7.80;99.90;;;;;;5027020;28;20236;-76
2021/05/05 11:44:35;;;;;;;0.60;0.60;;;7.70;99.90;;;;;;5025825;28;20578;-77
2021/05/05 11:47:02;;;;;;;0.60;0.60;;;7.60;99.90;;;;;;5023132;28;20221;-77
2021/05/05 11:49:33;;;;;;;0.60;0.60;;;7.50;99.90;;;;;;5023320;28;20205;-77
2021/05/05 11:51:59;;;;;;;0.60;0.60;;;7.50;99.90;;;;;;5026581;28;20212;-76
2021/05/05 11:54:30;;;;;;;0.60;0.60;;;8.40;99.90;;;;;;5028549;28;20216;-79
2021/05/05 11:57:04;;;;;;;0.60;0.60;;;7.40;99.90;;;;;;5022452;28;20845;-77
2021/05/05 11:59:30;;;;;;;0.60;0.60;;;7.40;99.90;;;;;;5023334;28;20213;-77
2021/05/05 12:02:03;;;;;;;0.60;0.60;;;7.30;99.90;;;;;;5024780;28;20263;-77
2021/05/05 12:04:36;;;;;;;0.50;0.50;;;7.40;99.90;;;;;;5028872;28;20209;-77
2021/05/05 12:07:03;;;;;;;0.60;0.60;;;7.40;99.90;;;;;;5023086;28;20232;-77
2021/05/05 12:09:33;;;;;;;0.60;0.60;;;7.30;99.90;;;;;;5026915;28;20208;-77
2021/05/05 12:12:18;;;;;;;0.60;0.60;;;7.30;99.90;;;;;;5026341;28;20208;-76
2021/05/05 12:14:47;;;;;;;0.50;0.50;;;7.30;99.90;;;;;;5028280;28;20255;-76
2021/05/05 12:17:23;;;;;;;0.60;0.60;;;7.30;99.90;;;;;;5024619;28;20303;-77
2021/05/05 12:20:08;;;;;;;0.60;0.60;;;7.50;99.90;;;;;;5027982;28;20228;-77
2021/05/05 12:22:35;;;;;;;0.60;0.60;;;7.50;99.90;;;;;;5028494;28;20204;-78
2021/05/05 12:27:40;;;;;;;0.60;0.60;;;7.70;99.90;;;;;;5065068;22;20254;-80
2021/05/05 12:30:09;;;;;;;0.60;0.60;;;7.60;99.90;;;;;;5054837;28;20219;-80
2021/05/05 12:32:43;;;;;;;0.60;0.60;;;9.20;99.90;;;;;;5061576;28;20555;-83
2021/05/05 12:37:46;;;;;;;0.60;0.60;;;7.60;99.90;;;;;;5245911;22;20246;-82
2021/05/05 12:40:13;;;;;;;0.60;0.60;;;7.50;99.90;;;;;;5074311;28;20551;-82
2021/05/05 12:42:40;;;;;;;0.57;0.57;;;7.50;99.90;;;;;;5068907;28;20203;-83
2021/05/05 12:45:15;;;;;;;0.60;0.60;;;7.60;99.90;;;;;;5076738;28;20220;-85
2021/05/05 12:47:46;;;;;;;0.60;0.60;;;7.60;99.90;;;;;;5083693;28;20197;-84
2021/05/05 12:50:16;;;;;;;0.50;0.50;;;7.70;99.90;;;;;;5062165;28;20295;-86
2021/05/05 12:52:43;;;;;;;0.60;0.60;;;7.70;99.90;;;;;;5062518;28;20410;-82
2021/05/05 12:55:36;;;;;;;0.60;0.60;;;7.70;99.90;;;;;;5065462;28;20196;-82
2021/05/05 12:58:08;;;;;;;0.50;0.50;;;7.90;99.90;;;;;;5063012;28;20585;-81
2021/05/05 13:00:42;;;;;;;0.60;0.60;;;8.00;99.90;;;;;;5062313;28;20203;-81
2021/05/05 13:03:11;;;;;;;0.60;0.60;;;8.40;99.90;;;;;;5067652;28;20253;-82
2021/05/05 13:06:03;;;;;;;0.60;0.60;;;8.60;99.90;;;;;;4549107;22;20234;-84
2021/05/05 13:08:44;;;;;;;0.60;0.60;;;11.30;99.90;;;;;;5077633;28;20234;-80
2021/05/05 13:11:22;;;;;;;0.60;0.60;;;8.40;99.90;;;;;;5066104;28;20250;-81
2021/05/05 13:13:54;;;;;;;0.60;0.60;;;8.60;99.90;;;;;;5067824;28;20222;-81
2021/05/05 13:16:44;;;;;;;0.60;0.60;;;8.60;99.90;;;;;;5063691;28;20566;-80
2021/05/05 13:19:25;;;;;;;0.60;0.60;;;8.70;99.90;;;;;;5062574;28;20220;-80